Time;durP1;ratioP1;P1;durP2;ratioP2;P2;SDS_P1;SDS_P2;PMS_P1;PMS_P2;Temp;Humidity;BMP_temperature;BMP_pressure;BME280_temperature;BME280_humidity;BME280_pressure;Samples;Min_cycle;Max_cycle;Signal;HPM_P1;HPM_P2
2021/09/10 00:00:48;;;;;;;20.25;17.55;;;19.70;99.90;;;;;;4917464;28;40980;-79
2021/09/10 00:03:14;;;;;;;18.58;16.60;;;19.70;99.90;;;;;;4919009;28;39552;-80
2021/09/10 00:05:41;;;;;;;22.27;16.13;;;19.60;99.90;;;;;;4920215;28;39786;-80
2021/09/10 00:08:07;;;;;;;19.58;17.08;;;19.60;99.90;;;;;;4898746;29;38051;-80
2021/09/10 00:10:33;;;;;;;19.73;15.32;;;19.60;99.90;;;;;;4875728;29;39398;-80
2021/09/10 00:13:00;;;;;;;20.42;14.88;;;19.60;99.90;;;;;;4882250;29;40361;-80
2021/09/10 00:15:26;;;;;;;17.15;15.35;;;19.60;99.90;;;;;;4886709;29;38361;-79
2021/09/10 00:17:52;;;;;;;19.35;16.25;;;19.50;99.90;;;;;;4889946;29;39401;-80
2021/09/10 00:20:18;;;;;;;20.55;15.80;;;19.50;99.90;;;;;;4881464;29;38842;-80
2021/09/10 00:22:44;;;;;;;20.48;18.17;;;19.40;99.90;;;;;;4887743;29;40120;-79
2021/09/10 00:25:11;;;;;;;19.63;17.20;;;19.30;99.90;;;;;;4878513;29;39587;-80
2021/09/10 00:27:37;;;;;;;22.25;17.52;;;19.30;99.90;;;;;;4883418;29;36839;-79
2021/09/10 00:30:06;;;;;;;23.10;18.52;;;19.30;99.90;;;;;;4880984;29;38558;-79
2021/09/10 00:32:32;;;;;;;23.73;19.35;;;19.30;99.90;;;;;;4890385;29;39541;-80
2021/09/10 00:34:58;;;;;;;24.48;20.27;;;19.20;99.90;;;;;;4898545;29;38846;-79
2021/09/10 00:37:24;;;;;;;20.10;17.33;;;19.30;99.90;;;;;;4883956;29;37210;-80
2021/09/10 00:39:50;;;;;;;24.75;20.50;;;19.30;99.90;;;;;;4885287;29;38124;-80
2021/09/10 00:42:18;;;;;;;22.17;17.88;;;19.20;99.90;;;;;;4884933;29;39934;-80
2021/09/10 00:44:44;;;;;;;23.85;18.42;;;19.20;99.90;;;;;;4888551;29;39458;-80
2021/09/10 00:47:10;;;;;;;25.83;21.52;;;19.20;99.90;;;;;;4879910;29;38416;-80
2021/09/10 00:49:37;;;;;;;23.10;19.17;;;19.20;99.90;;;;;;4885597;29;39809;-79
2021/09/10 00:52:03;;;;;;;22.08;18.42;;;19.20;99.90;;;;;;4883333;29;39343;-79
2021/09/10 00:54:29;;;;;;;21.58;19.15;;;19.20;99.90;;;;;;4881626;29;38835;-80
2021/09/10 00:56:57;;;;;;;25.02;19.48;;;19.20;99.90;;;;;;4883919;29;37786;-79
2021/09/10 00:59:23;;;;;;;22.80;18.88;;;19.20;99.90;;;;;;4888391;29;38651;-80
2021/09/10 01:01:50;;;;;;;24.20;18.70;;;19.30;99.90;;;;;;4882246;29;38699;-79
2021/09/10 01:04:22;;;;;;;20.70;18.23;;;19.30;99.90;;;;;;4880464;29;38939;-80
2021/09/10 01:06:52;;;;;;;23.90;18.40;;;19.30;99.90;;;;;;4882940;29;37423;-79
2021/09/10 01:09:20;;;;;;;22.33;19.45;;;19.30;99.90;;;;;;4905849;28;39380;-80
2021/09/10 01:11:47;;;;;;;21.20;18.40;;;19.30;99.90;;;;;;4918036;28;38480;-79
2021/09/10 01:14:16;;;;;;;23.23;18.15;;;19.30;99.90;;;;;;4920214;28;39507;-79
2021/09/10 01:16:42;;;;;;;24.75;20.27;;;19.40;99.90;;;;;;4923137;28;37732;-80
2021/09/10 01:19:18;;;;;;;21.67;17.83;;;19.40;99.90;;;;;;4920782;28;39039;-80
2021/09/10 01:21:49;;;;;;;25.27;18.70;;;19.50;99.90;;;;;;4919812;28;38551;-80
2021/09/10 01:24:15;;;;;;;23.67;17.83;;;19.50;99.90;;;;;;4899012;29;40070;-79
2021/09/10 01:26:41;;;;;;;23.45;18.95;;;19.50;99.90;;;;;;4899501;28;39384;-80
2021/09/10 01:29:07;;;;;;;20.98;17.67;;;19.60;99.90;;;;;;4919058;28;38780;-80
2021/09/10 01:31:33;;;;;;;26.85;17.92;;;19.70;99.90;;;;;;4905639;29;38133;-80
2021/09/10 01:33:59;;;;;;;23.10;18.20;;;19.70;99.90;;;;;;4904917;29;37353;-79
2021/09/10 01:36:26;;;;;;;21.63;17.75;;;19.70;99.90;;;;;;4903763;29;36311;-79
2021/09/10 01:38:52;;;;;;;23.30;17.52;;;19.80;99.90;;;;;;4916011;28;38556;-80
2021/09/10 01:41:18;;;;;;;24.70;18.20;;;19.90;99.90;;;;;;4905024;28;37612;-80
2021/09/10 01:43:44;;;;;;;22.00;17.10;;;19.90;99.90;;;;;;4905442;28;40444;-80
2021/09/10 01:46:11;;;;;;;23.38;16.90;;;19.90;99.90;;;;;;4905163;28;38778;-80
2021/09/10 01:48:37;;;;;;;22.40;17.90;;;19.90;99.90;;;;;;4923976;28;38856;-80
2021/09/10 01:51:03;;;;;;;22.02;18.50;;;20.00;99.90;;;;;;4917930;28;37501;-79
2021/09/10 01:53:32;;;;;;;19.60;16.13;;;20.00;99.90;;;;;;4903778;28;40071;-80
2021/09/10 01:55:58;;;;;;;21.02;16.67;;;20.00;99.90;;;;;;4915351;28;36995;-79
2021/09/10 01:58:24;;;;;;;20.00;15.85;;;20.00;99.90;;;;;;4908496;28;37566;-80
2021/09/10 02:00:50;;;;;;;24.92;17.05;;;20.00;99.90;;;;;;4920033;28;38790;-79
2021/09/10 02:03:16;;;;;;;21.08;16.58;;;20.00;99.90;;;;;;4925077;28;38691;-80
2021/09/10 02:05:43;;;;;;;20.38;17.48;;;20.00;99.90;;;;;;4921896;28;36231;-79
2021/09/10 02:08:09;;;;;;;21.98;16.70;;;19.90;99.90;;;;;;4899479;29;37833;-80
2021/09/10 02:10:35;;;;;;;20.60;17.10;;;19.90;99.90;;;;;;4906218;29;39222;-80
2021/09/10 02:13:01;;;;;;;23.50;18.02;;;19.90;99.90;;;;;;4920010;28;38345;-79
2021/09/10 02:15:27;;;;;;;22.75;17.50;;;19.90;99.90;;;;;;4907783;29;38923;-81
2021/09/10 02:17:53;;;;;;;22.95;17.05;;;19.80;99.90;;;;;;4910024;29;39620;-82
2021/09/10 02:20:19;;;;;;;20.08;16.85;;;19.70;99.90;;;;;;4921357;28;38945;-80
2021/09/10 02:22:46;;;;;;;24.10;19.25;;;19.70;99.90;;;;;;4903998;28;40073;-80
2021/09/10 02:25:12;;;;;;;25.15;18.13;;;19.70;99.90;;;;;;4917515;28;38347;-82
2021/09/10 02:27:38;;;;;;;21.38;17.08;;;19.70;99.90;;;;;;4905010;29;39964;-80
2021/09/10 02:30:05;;;;;;;22.45;17.40;;;19.60;99.90;;;;;;4910499;29;39817;-79
2021/09/10 02:32:31;;;;;;;26.80;19.42;;;19.60;99.90;;;;;;4922801;28;37704;-80
2021/09/10 02:34:57;;;;;;;25.67;19.75;;;19.60;99.90;;;;;;4914121;29;37464;-79
2021/09/10 02:37:23;;;;;;;23.30;18.60;;;19.50;99.90;;;;;;4905282;28;39675;-82
2021/09/10 02:39:49;;;;;;;22.65;18.45;;;19.50;99.90;;;;;;4904395;29;39764;-82
2021/09/10 02:42:16;;;;;;;25.00;19.88;;;19.50;99.90;;;;;;4923155;28;38407;-81
2021/09/10 02:44:42;;;;;;;27.15;20.73;;;19.40;99.90;;;;;;4919417;28;37270;-80
2021/09/10 02:47:08;;;;;;;26.52;20.15;;;19.40;99.90;;;;;;4915550;28;38876;-81
2021/09/10 02:49:34;;;;;;;29.20;19.73;;;19.40;99.90;;;;;;4922575;28;39117;-82
2021/09/10 02:52:01;;;;;;;24.52;19.17;;;19.40;99.90;;;;;;4918294;28;38051;-81
2021/09/10 02:54:27;;;;;;;21.40;19.02;;;19.30;99.90;;;;;;4919572;28;46445;-82
2021/09/10 02:56:53;;;;;;;22.50;18.45;;;19.30;99.90;;;;;;4919850;28;38884;-82
2021/09/10 02:59:19;;;;;;;23.27;18.10;;;19.40;99.90;;;;;;4914476;28;39472;-82
2021/09/10 03:01:47;;;;;;;21.67;17.75;;;19.40;99.90;;;;;;4903687;29;39020;-79
2021/09/10 03:04:13;;;;;;;22.83;18.05;;;19.40;99.90;;;;;;4922127;28;37461;-79
2021/09/10 03:06:39;;;;;;;22.25;18.08;;;19.40;99.90;;;;;;4903875;28;40808;-79
2021/09/10 03:09:05;;;;;;;24.48;17.88;;;19.40;99.90;;;;;;4896468;29;40571;-81
2021/09/10 03:11:32;;;;;;;21.60;18.35;;;19.40;99.90;;;;;;4896777;28;38504;-82
2021/09/10 03:13:58;;;;;;;19.95;16.63;;;19.40;99.90;;;;;;4899553;29;36307;-80
2021/09/10 03:16:24;;;;;;;23.55;17.25;;;19.40;99.90;;;;;;4898632;29;38123;-80
2021/09/10 03:18:50;;;;;;;20.88;17.08;;;19.30;99.90;;;;;;4899834;28;39081;-80
2021/09/10 03:21:16;;;;;;;21.67;17.85;;;19.30;99.90;;;;;;4902218;29;39644;-82
2021/09/10 03:23:42;;;;;;;23.17;17.55;;;19.30;99.90;;;;;;4903016;29;37020;-80
2021/09/10 03:26:08;;;;;;;20.00;17.65;;;19.30;99.90;;;;;;4901412;28;38446;-82
2021/09/10 03:28:34;;;;;;;20.48;17.02;;;19.30;99.90;;;;;;4901625;29;40054;-81
2021/09/10 03:31:00;;;;;;;23.75;18.23;;;19.30;99.90;;;;;;4901243;28;38705;-82
2021/09/10 03:33:26;;;;;;;21.33;18.27;;;19.20;99.90;;;;;;4901092;28;47873;-80
2021/09/10 03:35:52;;;;;;;20.60;17.13;;;19.30;99.90;;;;;;4909798;29;39410;-80
2021/09/10 03:38:18;;;;;;;22.88;17.75;;;19.30;99.90;;;;;;4923554;28;39854;-79
2021/09/10 03:40:44;;;;;;;28.05;19.13;;;19.20;99.90;;;;;;4900060;28;39149;-80
2021/09/10 03:43:10;;;;;;;23.92;18.25;;;19.20;99.90;;;;;;4900454;29;36906;-80
2021/09/10 03:45:36;;;;;;;24.95;17.88;;;19.20;99.90;;;;;;4897492;29;39906;-80
2021/09/10 03:48:03;;;;;;;24.70;18.80;;;19.20;99.90;;;;;;4902166;29;37516;-79
2021/09/10 03:50:29;;;;;;;23.83;16.90;;;19.20;99.90;;;;;;4897959;29;37722;-80
2021/09/10 03:52:55;;;;;;;23.42;18.75;;;19.20;99.90;;;;;;4902573;28;38403;-80
2021/09/10 03:55:21;;;;;;;22.98;17.80;;;19.20;99.90;;;;;;4903358;29;36549;-79
2021/09/10 03:57:47;;;;;;;20.52;17.90;;;19.20;99.90;;;;;;4902440;29;38694;-80
2021/09/10 04:00:14;;;;;;;27.73;20.40;;;19.20;99.90;;;;;;4899021;28;39608;-80
2021/09/10 04:02:40;;;;;;;23.92;18.88;;;19.30;99.90;;;;;;4900754;29;36634;-82
2021/09/10 04:05:06;;;;;;;26.42;19.02;;;19.20;99.90;;;;;;4904285;29;39159;-81
2021/09/10 04:07:33;;;;;;;28.02;17.90;;;19.30;99.90;;;;;;4915367;28;37655;-82
2021/09/10 04:09:59;;;;;;;26.63;19.10;;;19.30;99.90;;;;;;4898762;29;37083;-82
2021/09/10 04:12:25;;;;;;;23.17;17.45;;;19.30;99.90;;;;;;4898278;28;38878;-82
2021/09/10 04:14:51;;;;;;;21.45;17.70;;;19.30;99.90;;;;;;4900699;29;39370;-79
2021/09/10 04:17:17;;;;;;;23.38;17.67;;;19.20;99.90;;;;;;4899853;28;39966;-79
2021/09/10 04:19:43;;;;;;;21.77;17.55;;;19.30;99.90;;;;;;4902427;29;39001;-80
2021/09/10 04:22:09;;;;;;;27.05;18.38;;;19.30;99.90;;;;;;4899567;28;38068;-79
2021/09/10 04:24:35;;;;;;;23.35;18.38;;;19.30;99.90;;;;;;4898241;29;37855;-79
2021/09/10 04:27:01;;;;;;;22.40;17.20;;;19.30;99.90;;;;;;4899226;29;38622;-76
2021/09/10 04:29:27;;;;;;;22.58;17.33;;;19.30;99.90;;;;;;4900149;29;39291;-78
2021/09/10 04:31:54;;;;;;;25.15;18.25;;;19.30;99.90;;;;;;4902426;28;37770;-79
2021/09/10 04:34:20;;;;;;;25.40;18.45;;;19.30;99.90;;;;;;4895400;29;39708;-80
2021/09/10 04:36:46;;;;;;;20.95;17.95;;;19.30;99.90;;;;;;4903079;29;37839;-79
2021/09/10 04:39:12;;;;;;;26.73;19.17;;;19.30;99.90;;;;;;4897212;29;39513;-79
2021/09/10 04:41:38;;;;;;;27.08;19.77;;;19.20;99.90;;;;;;4898223;28;37721;-80
2021/09/10 04:44:04;;;;;;;21.00;17.55;;;19.20;99.90;;;;;;4902041;29;39495;-79
2021/09/10 04:46:30;;;;;;;25.38;18.23;;;19.20;99.90;;;;;;4901007;29;37805;-79
2021/09/10 04:48:56;;;;;;;31.00;21.30;;;19.20;99.90;;;;;;4909388;28;39440;-79
2021/09/10 04:51:23;;;;;;;25.88;18.00;;;19.10;99.90;;;;;;4894676;29;39073;-80
2021/09/10 04:53:49;;;;;;;25.45;18.42;;;19.10;99.90;;;;;;4913241;29;39518;-80
2021/09/10 04:56:15;;;;;;;24.80;19.02;;;19.10;99.90;;;;;;4897786;29;40689;-80
2021/09/10 04:58:42;;;;;;;29.55;21.30;;;19.00;99.90;;;;;;4899363;29;37934;-80
2021/09/10 05:01:08;;;;;;;30.48;20.30;;;19.00;99.90;;;;;;4902292;29;37028;-80
2021/09/10 05:03:34;;;;;;;27.35;20.15;;;19.00;99.90;;;;;;4908205;28;39576;-80
2021/09/10 05:06:00;;;;;;;31.88;20.30;;;19.00;99.90;;;;;;4901554;28;39330;-80
2021/09/10 05:08:26;;;;;;;26.95;18.95;;;19.00;99.90;;;;;;4910956;28;39185;-80
2021/09/10 05:10:52;;;;;;;27.45;19.65;;;18.90;99.90;;;;;;4910011;29;37022;-80
2021/09/10 05:13:18;;;;;;;34.65;22.35;;;18.90;99.90;;;;;;4926690;29;37751;-80
2021/09/10 05:15:44;;;;;;;29.15;21.25;;;18.90;99.90;;;;;;4909192;29;38062;-81
2021/09/10 05:18:10;;;;;;;28.98;20.45;;;18.80;99.90;;;;;;4909229;28;37813;-82
2021/09/10 05:20:37;;;;;;;24.83;20.25;;;18.80;99.90;;;;;;4919813;29;37630;-80
2021/09/10 05:23:03;;;;;;;32.17;21.38;;;18.80;99.90;;;;;;4921392;28;41584;-80
2021/09/10 05:25:29;;;;;;;31.63;19.13;;;18.80;99.90;;;;;;4903147;28;39033;-80
2021/09/10 05:27:55;;;;;;;28.17;20.75;;;18.80;99.90;;;;;;4925015;28;39487;-81
2021/09/10 05:30:21;;;;;;;27.25;18.85;;;18.80;99.90;;;;;;4924245;28;36170;-80
2021/09/10 05:32:47;;;;;;;29.23;19.35;;;18.80;99.90;;;;;;4909062;29;39542;-80
2021/09/10 05:35:15;;;;;;;27.42;18.80;;;18.70;99.90;;;;;;4900483;28;40140;-80
2021/09/10 05:37:42;;;;;;;27.38;18.58;;;18.70;99.90;;;;;;4905097;29;38764;-80
2021/09/10 05:40:09;;;;;;;22.98;18.02;;;18.70;99.90;;;;;;4926027;28;38194;-79
2021/09/10 05:42:36;;;;;;;24.95;17.35;;;18.80;99.90;;;;;;4913463;29;39648;-80
2021/09/10 05:45:06;;;;;;;16.55;14.50;;;18.80;99.90;;;;;;4944669;28;38352;-81
2021/09/10 05:47:33;;;;;;;23.13;17.67;;;18.90;99.90;;;;;;4906376;28;39067;-80
2021/09/10 05:49:59;;;;;;;20.60;16.20;;;19.00;99.90;;;;;;4935000;29;38557;-82
2021/09/10 05:52:25;;;;;;;21.25;14.68;;;18.90;99.90;;;;;;4910519;29;38182;-81
2021/09/10 05:54:51;;;;;;;22.92;16.27;;;19.00;99.90;;;;;;4926921;28;40809;-80
2021/09/10 05:57:18;;;;;;;21.92;15.32;;;18.90;99.90;;;;;;4910771;29;38679;-81
2021/09/10 05:59:44;;;;;;;18.15;14.45;;;19.00;99.90;;;;;;4932813;29;38786;-81
2021/09/10 06:02:10;;;;;;;24.23;17.02;;;19.00;99.90;;;;;;4912127;28;37901;-80
2021/09/10 06:04:36;;;;;;;20.75;15.65;;;19.00;99.90;;;;;;4911577;29;39671;-81
2021/09/10 06:07:02;;;;;;;19.13;13.50;;;19.00;99.90;;;;;;4931010;28;38629;-80
2021/09/10 06:09:28;;;;;;;20.27;15.20;;;19.00;99.90;;;;;;4924759;28;37386;-80
2021/09/10 06:11:55;;;;;;;18.17;14.40;;;19.00;99.90;;;;;;4940505;28;38404;-81
2021/09/10 06:14:21;;;;;;;18.50;14.52;;;19.10;99.90;;;;;;4937653;28;38989;-80
2021/09/10 06:16:47;;;;;;;18.85;14.82;;;19.10;99.90;;;;;;4916070;28;37834;-81
2021/09/10 06:19:13;;;;;;;16.27;12.95;;;19.10;99.90;;;;;;4924117;29;38325;-81
2021/09/10 06:21:39;;;;;;;18.85;13.52;;;19.10;99.90;;;;;;4918624;29;39378;-81
2021/09/10 06:24:05;;;;;;;20.95;13.45;;;19.10;99.90;;;;;;4930577;28;38258;-81
2021/09/10 06:26:36;;;;;;;18.70;11.98;;;19.20;99.90;;;;;;4929534;28;38224;-82
2021/09/10 06:29:04;;;;;;;20.05;13.82;;;19.20;99.90;;;;;;4923264;28;36283;-82
2021/09/10 06:31:32;;;;;;;14.70;11.80;;;19.20;99.90;;;;;;4932639;28;39079;-82
2021/09/10 06:33:58;;;;;;;13.85;11.13;;;19.30;99.90;;;;;;4926798;29;38120;-81
2021/09/10 06:36:24;;;;;;;16.83;11.00;;;19.30;99.90;;;;;;4913917;29;37966;-82
2021/09/10 06:38:50;;;;;;;16.27;12.32;;;19.30;99.90;;;;;;4914147;29;38973;-81
2021/09/10 06:41:16;;;;;;;18.50;11.48;;;19.30;99.90;;;;;;4929328;28;39385;-81
2021/09/10 06:43:42;;;;;;;17.23;11.35;;;19.50;99.90;;;;;;4911221;29;38544;-81
2021/09/10 06:46:08;;;;;;;13.98;10.45;;;19.50;99.90;;;;;;4912762;29;37730;-81
2021/09/10 06:48:34;;;;;;;14.50;10.70;;;19.50;99.90;;;;;;4932201;28;38374;-81
2021/09/10 06:51:00;;;;;;;15.13;10.45;;;19.50;99.90;;;;;;4928286;28;39124;-81
2021/09/10 06:53:26;;;;;;;14.85;10.10;;;19.50;99.90;;;;;;4913986;29;40905;-82
2021/09/10 06:55:53;;;;;;;14.50;11.20;;;19.50;99.90;;;;;;4914835;29;37609;-81
2021/09/10 06:58:19;;;;;;;15.13;9.60;;;19.50;99.90;;;;;;4915247;29;38025;-81
2021/09/10 07:00:45;;;;;;;14.25;9.88;;;19.60;99.90;;;;;;4929911;29;38602;-80
2021/09/10 07:03:11;;;;;;;14.50;9.10;;;19.60;99.90;;;;;;4913165;29;37987;-79
2021/09/10 07:05:37;;;;;;;12.25;8.45;;;19.60;99.90;;;;;;4911105;29;39127;-79
2021/09/10 07:08:03;;;;;;;15.20;9.95;;;19.60;99.90;;;;;;4914340;29;37934;-79
2021/09/10 07:10:30;;;;;;;13.63;8.88;;;19.70;99.90;;;;;;4908620;29;37461;-81
2021/09/10 07:12:56;;;;;;;12.27;8.98;;;19.80;99.90;;;;;;4918058;29;38874;-82
2021/09/10 07:15:22;;;;;;;10.90;9.02;;;19.80;99.90;;;;;;4943675;29;38489;-82
2021/09/10 07:17:48;;;;;;;11.07;8.75;;;19.90;99.90;;;;;;4929487;28;36538;-82
2021/09/10 07:20:16;;;;;;;15.00;9.35;;;20.00;99.90;;;;;;4937746;28;38366;-82
2021/09/10 07:22:42;;;;;;;12.05;8.57;;;20.10;99.90;;;;;;4939781;28;39370;-83
2021/09/10 07:25:09;;;;;;;10.43;7.80;;;20.00;99.90;;;;;;4921528;28;37827;-82
2021/09/10 07:27:35;;;;;;;11.00;8.02;;;20.00;99.90;;;;;;4920973;29;37996;-82
2021/09/10 07:30:01;;;;;;;11.85;7.45;;;19.90;99.90;;;;;;4945558;28;39286;-82
2021/09/10 07:32:27;;;;;;;11.30;7.60;;;19.90;99.90;;;;;;4932115;29;48599;-82
2021/09/10 07:34:54;;;;;;;10.30;8.20;;;19.90;99.90;;;;;;4930432;29;37600;-82
2021/09/10 07:37:26;;;;;;;10.10;7.93;;;20.00;99.90;;;;;;4927013;29;38124;-81
2021/09/10 07:39:54;;;;;;;11.75;8.18;;;20.10;99.90;;;;;;4947252;28;39285;-82
2021/09/10 07:42:21;;;;;;;11.38;7.75;;;20.10;99.90;;;;;;4920021;29;39327;-82
2021/09/10 07:44:49;;;;;;;11.18;7.30;;;20.10;99.90;;;;;;4938481;28;38492;-81
2021/09/10 07:47:17;;;;;;;15.07;8.07;;;20.10;99.90;;;;;;4926434;29;36890;-82
2021/09/10 07:49:45;;;;;;;9.30;7.80;;;20.10;99.90;;;;;;4939176;28;39891;-83
2021/09/10 07:52:11;;;;;;;13.50;8.07;;;20.10;99.90;;;;;;4925955;29;41519;-82
2021/09/10 07:54:37;;;;;;;12.40;8.38;;;20.10;99.90;;;;;;4921575;29;38762;-82
2021/09/10 07:57:04;;;;;;;15.45;8.25;;;20.40;99.90;;;;;;4938013;28;37982;-82
2021/09/10 07:59:30;;;;;;;10.57;7.57;;;20.50;99.90;;;;;;4924889;29;39517;-83
2021/09/10 08:01:56;;;;;;;12.23;8.02;;;20.70;99.90;;;;;;4927276;29;39450;-83
2021/09/10 08:04:22;;;;;;;11.50;7.40;;;20.70;99.90;;;;;;4942775;28;38785;-81
2021/09/10 08:06:48;;;;;;;14.07;7.97;;;20.80;99.90;;;;;;4915227;29;38051;-82
2021/09/10 08:09:14;;;;;;;11.70;7.32;;;20.90;99.90;;;;;;4930092;29;38602;-83
2021/09/10 08:11:40;;;;;;;11.88;8.43;;;21.00;99.90;;;;;;4919318;29;38261;-83
2021/09/10 08:14:08;;;;;;;9.55;7.80;;;21.10;99.90;;;;;;4916900;28;39005;-82
2021/09/10 08:16:34;;;;;;;9.90;7.57;;;21.00;99.90;;;;;;4930738;28;37603;-82
2021/09/10 08:19:01;;;;;;;11.07;9.05;;;20.90;99.90;;;;;;4918962;29;38894;-82
2021/09/10 08:21:27;;;;;;;13.80;9.27;;;20.70;99.90;;;;;;4912966;29;40399;-82
2021/09/10 08:23:53;;;;;;;12.68;11.30;;;20.70;99.90;;;;;;4911162;29;38618;-81
2021/09/10 08:26:21;;;;;;;15.38;13.88;;;20.70;99.90;;;;;;4913042;29;37769;-82
2021/09/10 08:28:48;;;;;;;19.60;15.10;;;20.80;99.90;;;;;;4919169;28;39094;-82
2021/09/10 08:31:14;;;;;;;14.30;12.52;;;20.70;99.90;;;;;;4916991;29;37825;-81
2021/09/10 08:33:40;;;;;;;14.15;12.73;;;20.80;99.90;;;;;;4914632;29;39683;-82
2021/09/10 08:36:06;;;;;;;15.82;14.13;;;20.80;99.90;;;;;;4911683;29;37588;-83
2021/09/10 08:38:33;;;;;;;13.82;12.23;;;20.80;99.90;;;;;;4921137;29;38754;-83
2021/09/10 08:41:03;;;;;;;14.70;13.05;;;20.90;99.90;;;;;;4924558;29;38537;-82
2021/09/10 08:43:32;;;;;;;16.02;12.68;;;20.80;99.90;;;;;;4921747;29;47326;-82
2021/09/10 08:45:59;;;;;;;12.35;11.05;;;20.80;99.90;;;;;;4917461;29;37861;-82
2021/09/10 08:48:27;;;;;;;10.90;9.80;;;20.80;99.90;;;;;;4923548;29;39830;-83
2021/09/10 08:50:56;;;;;;;14.38;11.07;;;20.80;99.90;;;;;;4917346;29;39600;-82
2021/09/10 08:53:28;;;;;;;14.35;11.48;;;20.80;99.90;;;;;;4920331;29;38728;-83
2021/09/10 08:55:54;;;;;;;;;;;20.90;99.90;;;;;;4919785;29;37970;-81
2021/09/10 08:58:24;;;;;;;18.50;14.07;;;20.80;99.90;;;;;;4911130;29;39817;-81
2021/09/10 09:00:52;;;;;;;16.30;14.07;;;20.80;99.90;;;;;;4900401;29;38197;-81
2021/09/10 09:03:18;;;;;;;17.20;15.20;;;20.80;99.90;;;;;;4914887;28;37857;-80
2021/09/10 09:05:49;;;;;;;16.35;14.65;;;20.90;99.90;;;;;;4910269;29;36986;-79
2021/09/10 09:08:19;;;;;;;18.35;15.13;;;20.90;99.90;;;;;;4914630;29;38866;-80
2021/09/10 09:11:06;;;;;;;17.67;14.52;;;21.00;99.90;;;;;;4912729;29;38001;-80
2021/09/10 09:13:38;;;;;;;17.33;14.40;;;21.10;99.90;;;;;;4913056;29;47128;-80
2021/09/10 09:16:16;;;;;;;19.95;14.88;;;21.10;99.90;;;;;;4930479;28;36450;-80
2021/09/10 09:18:53;;;;;;;21.90;18.88;;;21.10;99.90;;;;;;4914800;29;37693;-81
2021/09/10 09:21:28;;;;;;;22.70;20.25;;;21.00;99.90;;;;;;4910958;28;38101;-80
2021/09/10 09:24:09;;;;;;;23.70;19.65;;;21.00;99.90;;;;;;4916426;29;37530;-80
2021/09/10 09:26:35;;;;;;;19.98;16.30;;;21.00;99.90;;;;;;4912244;29;47217;-81
2021/09/10 09:29:05;;;;;;;22.67;18.25;;;20.90;99.90;;;;;;4913435;29;37677;-80
2021/09/10 09:31:32;;;;;;;22.20;18.45;;;20.80;99.90;;;;;;4905197;29;47338;-80
2021/09/10 09:33:58;;;;;;;21.88;17.40;;;20.80;99.90;;;;;;4913538;29;39689;-80
2021/09/10 09:36:24;;;;;;;19.70;15.45;;;20.90;99.90;;;;;;4910437;29;36760;-80
2021/09/10 09:38:50;;;;;;;18.35;14.82;;;21.10;99.90;;;;;;4921282;28;38963;-80
2021/09/10 09:41:21;;;;;;;17.45;14.52;;;21.30;99.90;;;;;;4907477;29;38436;-80
2021/09/10 09:43:52;;;;;;;15.30;13.77;;;21.20;99.90;;;;;;4913866;28;38863;-81
2021/09/10 09:46:22;;;;;;;14.98;13.43;;;21.20;99.90;;;;;;4911426;28;36569;-80
2021/09/10 09:48:50;;;;;;;18.13;14.20;;;21.30;99.90;;;;;;4912617;29;39852;-80
2021/09/10 09:51:21;;;;;;;15.38;13.38;;;21.30;99.90;;;;;;4915684;29;37980;-80
2021/09/10 09:53:48;;;;;;;16.63;13.77;;;21.40;99.90;;;;;;4912698;29;37468;-80
2021/09/10 09:56:14;;;;;;;13.35;11.50;;;21.50;99.90;;;;;;4915855;29;36290;-80
2021/09/10 09:58:42;;;;;;;15.77;14.07;;;21.70;99.90;;;;;;4914990;29;38734;-81
2021/09/10 10:01:10;;;;;;;14.52;12.55;;;21.80;99.90;;;;;;4934071;28;40556;-81
2021/09/10 10:15:47;;;;;;;11.15;10.05;;;22.80;99.90;;;;;;5682383;23;20053;-81
2021/09/10 10:18:44;;;;;;;10.98;9.75;;;22.70;99.90;;;;;;4869718;29;37153;-82
2021/09/10 10:21:48;;;;;;;11.18;10.05;;;22.60;99.90;;;;;;4862854;29;39175;-82
2021/09/10 10:24:51;;;;;;;11.73;8.90;;;22.30;99.90;;;;;;4886776;29;39535;-81
2021/09/10 10:27:35;;;;;;;10.18;9.18;;;22.50;99.90;;;;;;4900797;29;38916;-82
2021/09/10 10:31:08;;;;;;;12.63;8.75;;;22.80;99.90;;;;;;4887778;29;37270;-84
2021/09/10 10:34:22;;;;;;;9.60;8.25;;;23.00;99.90;;;;;;4886662;29;40359;-83
2021/09/10 10:37:54;;;;;;;9.95;8.95;;;22.90;99.90;;;;;;4815937;29;40060;-84
2021/09/10 10:40:55;;;;;;;11.75;8.93;;;22.60;99.90;;;;;;4806922;29;38992;-81
2021/09/10 10:46:40;;;;;;;9.80;8.80;;;22.70;99.90;;;;;;4968014;28;20024;-83
2021/09/10 10:55:22;;;;;;;11.02;9.07;;;22.50;99.90;;;;;;5352914;23;20036;-81
2021/09/10 11:03:21;;;;;;;9.88;8.43;;;22.60;99.90;;;;;;5138235;23;20049;-82
2021/09/10 11:06:40;;;;;;;12.20;9.50;;;22.50;99.90;;;;;;4874711;29;49464;-83
2021/09/10 11:09:42;;;;;;;11.38;8.70;;;22.50;99.90;;;;;;4871346;29;40007;-81
2021/09/10 11:12:40;;;;;;;9.25;8.30;;;22.30;99.90;;;;;;4896012;29;38919;-82
2021/09/10 11:15:33;;;;;;;9.50;8.18;;;22.20;99.90;;;;;;4873468;29;38656;-83
2021/09/10 11:18:19;;;;;;;9.80;8.60;;;22.30;99.90;;;;;;4907609;29;39502;-82
2021/09/10 11:20:58;;;;;;;9.60;8.38;;;22.30;99.90;;;;;;4886201;29;47932;-81
2021/09/10 11:23:36;;;;;;;8.15;6.97;;;22.50;99.90;;;;;;4880783;29;38792;-81
2021/09/10 11:29:23;;;;;;;9.10;8.18;;;22.40;99.90;;;;;;4873102;29;20034;-83
2021/09/10 11:51:57;;;;;;;10.90;9.80;;;22.30;99.90;;;;;;4899599;29;20059;-83
2021/09/10 11:55:30;;;;;;;13.45;11.05;;;22.40;99.90;;;;;;4903990;28;49845;-82
2021/09/10 11:58:22;;;;;;;11.38;10.27;;;22.30;99.90;;;;;;4938514;23;48710;-82
2021/09/10 12:07:01;;;;;;;12.70;11.40;;;22.50;99.90;;;;;;5063775;23;20049;-82
2021/09/10 12:20:45;;;;;;;13.07;11.90;;;22.40;99.90;;;;;;5861522;23;20035;-82
2021/09/10 12:24:27;;;;;;;12.02;10.90;;;22.40;99.90;;;;;;4922596;28;39066;-83
2021/09/10 12:36:21;;;;;;;14.20;12.80;;;22.70;99.90;;;;;;5493298;23;20064;-82
2021/09/10 12:39:11;;;;;;;13.93;12.63;;;22.70;99.90;;;;;;5242418;23;48995;-82
2021/09/10 12:42:05;;;;;;;12.60;11.30;;;22.60;99.90;;;;;;4895366;29;48417;-82
2021/09/10 12:44:40;;;;;;;11.95;10.75;;;22.60;99.90;;;;;;4902109;28;39288;-80
2021/09/10 12:52:29;;;;;;;10.35;8.82;;;22.30;99.90;;;;;;5988149;23;20011;-80
2021/09/10 13:01:25;;;;;;;11.68;9.95;;;22.30;99.90;;;;;;4838512;29;37969;-85
2021/09/10 13:04:08;;;;;;;12.50;10.70;;;22.40;99.90;;;;;;4860894;29;39362;-82
2021/09/10 13:07:02;;;;;;;13.82;11.80;;;22.20;99.90;;;;;;4844951;29;49351;-81
2021/09/10 13:10:07;;;;;;;16.90;15.40;;;22.20;99.90;;;;;;4851419;29;49726;-81
2021/09/10 13:12:56;;;;;;;16.58;14.93;;;22.10;99.90;;;;;;4839994;29;50258;-81
2021/09/10 13:18:01;;;;;;;14.82;13.38;;;22.10;99.90;;;;;;5231738;23;20054;-82
2021/09/10 13:20:33;;;;;;;16.60;15.00;;;22.10;99.90;;;;;;4915276;29;38644;-83
2021/09/10 13:23:05;;;;;;;;;;;22.20;99.90;;;;;;4922809;29;38868;-82
2021/09/10 13:25:37;;;;;;;16.77;11.55;;;22.30;99.90;;;;;;4934414;28;48294;-83
2021/09/10 13:28:05;;;;;;;13.82;12.20;;;22.50;99.90;;;;;;4910289;29;38376;-81
2021/09/10 13:30:35;;;;;;;14.23;12.73;;;22.70;99.90;;;;;;4922437;28;38649;-83
2021/09/10 13:33:01;;;;;;;14.80;13.20;;;22.70;99.90;;;;;;4912264;29;37680;-82
2021/09/10 13:35:35;;;;;;;14.10;12.70;;;22.70;99.90;;;;;;4895918;29;40902;-83
2021/09/10 13:38:07;;;;;;;14.18;12.82;;;22.60;99.90;;;;;;4906620;29;38468;-81
2021/09/10 13:40:37;;;;;;;15.15;12.07;;;22.80;99.90;;;;;;4888763;29;48727;-83
2021/09/10 13:43:13;;;;;;;13.88;12.40;;;22.90;99.90;;;;;;4913120;29;37582;-84
2021/09/10 13:45:44;;;;;;;16.02;13.32;;;23.00;99.90;;;;;;4873074;29;40096;-81
2021/09/10 13:48:19;;;;;;;13.27;11.93;;;23.10;99.90;;;;;;4904406;29;38219;-81
2021/09/10 13:50:46;;;;;;;12.32;10.75;;;23.20;99.90;;;;;;4946969;23;38694;-81
2021/09/10 13:53:16;;;;;;;13.73;12.35;;;23.30;99.90;;;;;;4931650;29;38853;-81
2021/09/10 13:55:42;;;;;;;15.15;12.90;;;23.40;99.90;;;;;;4911310;23;38152;-83
2021/09/10 13:58:18;;;;;;;14.07;12.68;;;23.40;99.90;;;;;;4894683;29;40056;-84
2021/09/10 14:03:55;;;;;;;13.73;12.35;;;23.40;99.90;;;;;;4927791;28;20909;-80
2021/09/10 14:06:23;;;;;;;14.43;12.85;;;23.40;99.90;;;;;;4923672;28;39126;-81
2021/09/10 14:08:49;;;;;;;16.52;14.93;;;23.30;99.90;;;;;;4908668;29;38901;-80
2021/09/10 14:11:16;;;;;;;16.42;14.75;;;23.10;99.90;;;;;;4920286;28;39998;-81
2021/09/10 14:14:03;;;;;;;17.10;15.35;;;22.90;99.90;;;;;;5095896;23;38870;-81
2021/09/10 14:19:37;;;;;;;19.27;17.33;;;22.70;99.90;;;;;;5152068;23;20059;-82
2021/09/10 14:24:52;;;;;;;16.05;14.35;;;22.60;99.90;;;;;;5335547;23;20044;-83